Terminal Aerodrome Forecast
Issued by NWS Wakefield, VA

Home | Current Version | Previous Version | Text Only | Print | Product List | Glossary On
Versions: 1 2 3 4 5 6 7 8 9 10 11 12 13 14 15 16 17 18 19 20 21 22 23 24 25 26 27 28 29
049
FTUS41 KAKQ 261728
TAFSBY
TAF
KSBY 261728Z 2618/2718 28014G24KT P6SM BKN050
     FM270000 29009KT P6SM SCT090
     FM270600 30005KT P6SM SKC
     FM271500 27004KT P6SM BKN080=

USA.gov is the U.S. government's official web portal to all federal, state and local government web resources and services.